sensor_id;sensor_type;location;lat;lon;timestamp;P1;durP1;ratioP1;P2;durP2;ratioP2
65533;SDS011;53640;55.838;37.184;2024-03-06T00:00:53;3.45;;;1.65;;
65533;SDS011;53640;55.838;37.184;2024-03-06T00:03:19;2.25;;;1.30;;
65533;SDS011;53640;55.838;37.184;2024-03-06T00:05:45;3.55;;;1.70;;
65533;SDS011;53640;55.838;37.184;2024-03-06T00:08:13;1.30;;;1.10;;
65533;SDS011;53640;55.838;37.184;2024-03-06T00:10:40;2.72;;;1.42;;
65533;SDS011;53640;55.838;37.184;2024-03-06T00:13:07;3.20;;;1.38;;
65533;SDS011;53640;55.838;37.184;2024-03-06T00:15:35;1.20;;;1.10;;
65533;SDS011;53640;55.838;37.184;2024-03-06T00:18:02;1.63;;;1.30;;
65533;SDS011;53640;55.838;37.184;2024-03-06T00:20:29;2.03;;;1.30;;
65533;SDS011;53640;55.838;37.184;2024-03-06T00:22:56;3.35;;;1.50;;
65533;SDS011;53640;55.838;37.184;2024-03-06T00:25:22;3.53;;;1.70;;
65533;SDS011;53640;55.838;37.184;2024-03-06T00:27:50;4.07;;;1.08;;
65533;SDS011;53640;55.838;37.184;2024-03-06T00:30:20;2.08;;;1.30;;
65533;SDS011;53640;55.838;37.184;2024-03-06T00:32:50;4.72;;;1.17;;
65533;SDS011;53640;55.838;37.184;2024-03-06T00:35:19;2.03;;;1.30;;
65533;SDS011;53640;55.838;37.184;2024-03-06T00:37:47;2.72;;;1.40;;
65533;SDS011;53640;55.838;37.184;2024-03-06T00:40:13;3.17;;;1.45;;
65533;SDS011;53640;55.838;37.184;2024-03-06T00:42:39;3.63;;;1.33;;
65533;SDS011;53640;55.838;37.184;2024-03-06T00:45:08;2.95;;;1.27;;
65533;SDS011;53640;55.838;37.184;2024-03-06T00:47:37;1.10;;;1.05;;
65533;SDS011;53640;55.838;37.184;2024-03-06T00:50:03;2.55;;;1.20;;
65533;SDS011;53640;55.838;37.184;2024-03-06T00:52:33;3.10;;;1.15;;
65533;SDS011;53640;55.838;37.184;2024-03-06T00:55:00;1.77;;;1.40;;
65533;SDS011;53640;55.838;37.184;2024-03-06T00:57:30;3.85;;;1.30;;
65533;SDS011;53640;55.838;37.184;2024-03-06T00:59:57;3.58;;;1.30;;
65533;SDS011;53640;55.838;37.184;2024-03-06T01:02:24;2.63;;;1.27;;
65533;SDS011;53640;55.838;37.184;2024-03-06T01:04:51;2.85;;;1.20;;
65533;SDS011;53640;55.838;37.184;2024-03-06T01:07:17;1.45;;;1.25;;
65533;SDS011;53640;55.838;37.184;2024-03-06T01:09:44;2.50;;;1.33;;
65533;SDS011;53640;55.838;37.184;2024-03-06T01:12:11;1.45;;;1.02;;
65533;SDS011;53640;55.838;37.184;2024-03-06T01:14:37;2.78;;;1.33;;
65533;SDS011;53640;55.838;37.184;2024-03-06T01:17:04;2.70;;;1.52;;
65533;SDS011;53640;55.838;37.184;2024-03-06T01:19:31;1.73;;;1.13;;
65533;SDS011;53640;55.838;37.184;2024-03-06T01:21:57;1.25;;;1.15;;
65533;SDS011;53640;55.838;37.184;2024-03-06T01:24:27;4.35;;;1.70;;
65533;SDS011;53640;55.838;37.184;2024-03-06T01:26:54;2.10;;;1.67;;
65533;SDS011;53640;55.838;37.184;2024-03-06T01:29:20;2.30;;;1.25;;
65533;SDS011;53640;55.838;37.184;2024-03-06T01:31:47;2.65;;;1.48;;
65533;SDS011;53640;55.838;37.184;2024-03-06T01:34:14;2.38;;;1.20;;
65533;SDS011;53640;55.838;37.184;2024-03-06T01:36:43;5.25;;;1.33;;
65533;SDS011;53640;55.838;37.184;2024-03-06T01:39:10;5.03;;;1.48;;
65533;SDS011;53640;55.838;37.184;2024-03-06T01:41:37;3.58;;;1.77;;
65533;SDS011;53640;55.838;37.184;2024-03-06T01:44:04;1.73;;;1.40;;
65533;SDS011;53640;55.838;37.184;2024-03-06T01:46:31;1.73;;;1.48;;
65533;SDS011;53640;55.838;37.184;2024-03-06T01:48:57;4.45;;;1.55;;
65533;SDS011;53640;55.838;37.184;2024-03-06T01:51:24;2.92;;;1.58;;
65533;SDS011;53640;55.838;37.184;2024-03-06T01:53:52;3.10;;;1.60;;
65533;SDS011;53640;55.838;37.184;2024-03-06T01:56:19;3.17;;;2.00;;
65533;SDS011;53640;55.838;37.184;2024-03-06T01:58:46;5.15;;;1.80;;
65533;SDS011;53640;55.838;37.184;2024-03-06T02:01:14;3.85;;;2.17;;
65533;SDS011;53640;55.838;37.184;2024-03-06T02:03:43;4.97;;;2.17;;
65533;SDS011;53640;55.838;37.184;2024-03-06T02:06:11;3.45;;;1.40;;
65533;SDS011;53640;55.838;37.184;2024-03-06T02:08:41;3.75;;;1.80;;
65533;SDS011;53640;55.838;37.184;2024-03-06T02:11:13;4.78;;;1.70;;
65533;SDS011;53640;55.838;37.184;2024-03-06T02:13:43;1.42;;;1.33;;
65533;SDS011;53640;55.838;37.184;2024-03-06T02:16:10;3.78;;;1.63;;
65533;SDS011;53640;55.838;37.184;2024-03-06T02:18:37;3.40;;;1.80;;
65533;SDS011;53640;55.838;37.184;2024-03-06T02:21:04;2.55;;;1.73;;
65533;SDS011;53640;55.838;37.184;2024-03-06T02:23:30;4.93;;;1.45;;
65533;SDS011;53640;55.838;37.184;2024-03-06T02:25:57;3.47;;;1.50;;
65533;SDS011;53640;55.838;37.184;2024-03-06T02:28:23;3.63;;;1.83;;
65533;SDS011;53640;55.838;37.184;2024-03-06T02:30:51;3.90;;;1.67;;
65533;SDS011;53640;55.838;37.184;2024-03-06T02:33:18;5.28;;;1.83;;
65533;SDS011;53640;55.838;37.184;2024-03-06T02:35:46;4.28;;;2.10;;
65533;SDS011;53640;55.838;37.184;2024-03-06T02:38:12;4.60;;;2.35;;
65533;SDS011;53640;55.838;37.184;2024-03-06T02:40:39;3.97;;;2.00;;
65533;SDS011;53640;55.838;37.184;2024-03-06T02:43:05;2.55;;;1.48;;
65533;SDS011;53640;55.838;37.184;2024-03-06T02:45:32;2.15;;;1.45;;
65533;SDS011;53640;55.838;37.184;2024-03-06T02:47:58;3.00;;;1.63;;
65533;SDS011;53640;55.838;37.184;2024-03-06T02:50:26;5.28;;;1.83;;
65533;SDS011;53640;55.838;37.184;2024-03-06T02:52:52;4.70;;;1.50;;
65533;SDS011;53640;55.838;37.184;2024-03-06T02:55:19;3.47;;;1.27;;
65533;SDS011;53640;55.838;37.184;2024-03-06T02:57:45;4.43;;;1.60;;
65533;SDS011;53640;55.838;37.184;2024-03-06T03:00:12;2.65;;;1.58;;
65533;SDS011;53640;55.838;37.184;2024-03-06T03:02:39;3.95;;;2.00;;
65533;SDS011;53640;55.838;37.184;2024-03-06T03:05:06;2.63;;;1.63;;
65533;SDS011;53640;55.838;37.184;2024-03-06T03:07:36;8.48;;;1.92;;
65533;SDS011;53640;55.838;37.184;2024-03-06T03:10:03;4.22;;;2.13;;
65533;SDS011;53640;55.838;37.184;2024-03-06T03:12:31;4.60;;;2.05;;
65533;SDS011;53640;55.838;37.184;2024-03-06T03:14:57;4.78;;;1.80;;
65533;SDS011;53640;55.838;37.184;2024-03-06T03:17:24;2.58;;;1.70;;
65533;SDS011;53640;55.838;37.184;2024-03-06T03:19:50;6.15;;;1.85;;
65533;SDS011;53640;55.838;37.184;2024-03-06T03:22:18;8.60;;;2.30;;
65533;SDS011;53640;55.838;37.184;2024-03-06T03:24:46;6.28;;;2.53;;
65533;SDS011;53640;55.838;37.184;2024-03-06T03:27:13;4.38;;;2.13;;
65533;SDS011;53640;55.838;37.184;2024-03-06T03:29:40;3.10;;;1.88;;
65533;SDS011;53640;55.838;37.184;2024-03-06T03:32:07;3.72;;;2.15;;
65533;SDS011;53640;55.838;37.184;2024-03-06T03:34:34;13.05;;;3.50;;
65533;SDS011;53640;55.838;37.184;2024-03-06T03:37:01;5.25;;;2.30;;
65533;SDS011;53640;55.838;37.184;2024-03-06T03:39:28;3.20;;;1.95;;
65533;SDS011;53640;55.838;37.184;2024-03-06T03:41:55;4.25;;;2.00;;
65533;SDS011;53640;55.838;37.184;2024-03-06T03:44:22;4.30;;;1.83;;
65533;SDS011;53640;55.838;37.184;2024-03-06T03:46:48;4.28;;;1.90;;
65533;SDS011;53640;55.838;37.184;2024-03-06T03:49:15;4.43;;;1.77;;
65533;SDS011;53640;55.838;37.184;2024-03-06T03:51:42;3.67;;;1.80;;
65533;SDS011;53640;55.838;37.184;2024-03-06T03:54:08;7.50;;;2.15;;
65533;SDS011;53640;55.838;37.184;2024-03-06T03:56:35;3.78;;;1.83;;
65533;SDS011;53640;55.838;37.184;2024-03-06T03:59:01;5.13;;;2.40;;
65533;SDS011;53640;55.838;37.184;2024-03-06T04:01:31;6.28;;;2.15;;
65533;SDS011;53640;55.838;37.184;2024-03-06T04:03:59;5.35;;;2.10;;
65533;SDS011;53640;55.838;37.184;2024-03-06T04:06:25;5.05;;;2.40;;
65533;SDS011;53640;55.838;37.184;2024-03-06T04:08:51;5.22;;;2.00;;
65533;SDS011;53640;55.838;37.184;2024-03-06T04:11:30;5.50;;;2.28;;
65533;SDS011;53640;55.838;37.184;2024-03-06T04:13:58;3.43;;;2.20;;
65533;SDS011;53640;55.838;37.184;2024-03-06T04:16:25;4.60;;;2.25;;
65533;SDS011;53640;55.838;37.184;2024-03-06T04:18:52;2.85;;;1.63;;
65533;SDS011;53640;55.838;37.184;2024-03-06T04:21:19;2.60;;;1.75;;
65533;SDS011;53640;55.838;37.184;2024-03-06T04:23:46;5.40;;;1.92;;
65533;SDS011;53640;55.838;37.184;2024-03-06T04:26:13;8.05;;;2.10;;
65533;SDS011;53640;55.838;37.184;2024-03-06T04:28:59;3.72;;;1.85;;
65533;SDS011;53640;55.838;37.184;2024-03-06T04:31:26;3.58;;;1.88;;
65533;SDS011;53640;55.838;37.184;2024-03-06T04:33:52;6.40;;;2.00;;
65533;SDS011;53640;55.838;37.184;2024-03-06T04:36:19;4.03;;;1.98;;
65533;SDS011;53640;55.838;37.184;2024-03-06T04:38:49;2.30;;;1.67;;
65533;SDS011;53640;55.838;37.184;2024-03-06T04:41:20;3.40;;;1.85;;
65533;SDS011;53640;55.838;37.184;2024-03-06T04:43:49;4.17;;;2.07;;
65533;SDS011;53640;55.838;37.184;2024-03-06T04:46:18;3.08;;;1.70;;
65533;SDS011;53640;55.838;37.184;2024-03-06T04:48:49;3.20;;;1.50;;
65533;SDS011;53640;55.838;37.184;2024-03-06T04:51:16;5.57;;;2.08;;
65533;SDS011;53640;55.838;37.184;2024-03-06T04:53:45;3.25;;;1.90;;
65533;SDS011;53640;55.838;37.184;2024-03-06T04:56:12;4.75;;;1.88;;
65533;SDS011;53640;55.838;37.184;2024-03-06T04:58:40;2.95;;;1.80;;
65533;SDS011;53640;55.838;37.184;2024-03-06T05:01:08;4.05;;;2.03;;
65533;SDS011;53640;55.838;37.184;2024-03-06T05:03:35;2.78;;;1.80;;
65533;SDS011;53640;55.838;37.184;2024-03-06T05:06:03;3.20;;;2.25;;
65533;SDS011;53640;55.838;37.184;2024-03-06T05:08:31;5.40;;;2.20;;
65533;SDS011;53640;55.838;37.184;2024-03-06T05:10:59;4.65;;;2.05;;
65533;SDS011;53640;55.838;37.184;2024-03-06T05:13:26;3.50;;;1.95;;
65533;SDS011;53640;55.838;37.184;2024-03-06T05:15:53;3.83;;;2.05;;
65533;SDS011;53640;55.838;37.184;2024-03-06T05:18:21;5.78;;;1.88;;
65533;SDS011;53640;55.838;37.184;2024-03-06T05:20:48;3.70;;;2.05;;
65533;SDS011;53640;55.838;37.184;2024-03-06T05:23:14;4.70;;;1.85;;
65533;SDS011;53640;55.838;37.184;2024-03-06T05:25:43;3.15;;;2.03;;
65533;SDS011;53640;55.838;37.184;2024-03-06T05:28:10;5.40;;;2.20;;
65533;SDS011;53640;55.838;37.184;2024-03-06T05:30:37;4.05;;;1.75;;
65533;SDS011;53640;55.838;37.184;2024-03-06T05:33:04;5.97;;;2.00;;
65533;SDS011;53640;55.838;37.184;2024-03-06T05:35:32;5.68;;;2.10;;
65533;SDS011;53640;55.838;37.184;2024-03-06T05:37:58;3.83;;;1.80;;
65533;SDS011;53640;55.838;37.184;2024-03-06T05:40:25;4.03;;;1.88;;
65533;SDS011;53640;55.838;37.184;2024-03-06T05:42:52;3.58;;;1.92;;
65533;SDS011;53640;55.838;37.184;2024-03-06T05:45:18;5.60;;;2.53;;
65533;SDS011;53640;55.838;37.184;2024-03-06T05:47:46;9.13;;;2.17;;
65533;SDS011;53640;55.838;37.184;2024-03-06T05:50:13;6.00;;;2.50;;
65533;SDS011;53640;55.838;37.184;2024-03-06T05:52:42;2.60;;;2.00;;
65533;SDS011;53640;55.838;37.184;2024-03-06T05:55:08;11.43;;;2.40;;
65533;SDS011;53640;55.838;37.184;2024-03-06T05:57:35;12.73;;;2.78;;
65533;SDS011;53640;55.838;37.184;2024-03-06T06:00:02;5.10;;;2.25;;
65533;SDS011;53640;55.838;37.184;2024-03-06T06:02:37;5.75;;;2.95;;
65533;SDS011;53640;55.838;37.184;2024-03-06T06:05:04;10.77;;;2.15;;
65533;SDS011;53640;55.838;37.184;2024-03-06T06:07:32;6.95;;;2.20;;
65533;SDS011;53640;55.838;37.184;2024-03-06T06:09:58;6.68;;;2.70;;
65533;SDS011;53640;55.838;37.184;2024-03-06T06:12:25;8.93;;;3.45;;
65533;SDS011;53640;55.838;37.184;2024-03-06T06:14:52;11.25;;;2.72;;
65533;SDS011;53640;55.838;37.184;2024-03-06T06:17:18;4.75;;;2.10;;
65533;SDS011;53640;55.838;37.184;2024-03-06T06:19:47;6.43;;;2.45;;
65533;SDS011;53640;55.838;37.184;2024-03-06T06:22:13;4.75;;;2.33;;
65533;SDS011;53640;55.838;37.184;2024-03-06T06:24:41;8.57;;;1.83;;
65533;SDS011;53640;55.838;37.184;2024-03-06T06:27:09;5.82;;;2.15;;
65533;SDS011;53640;55.838;37.184;2024-03-06T06:32:30;4.03;;;1.75;;
65533;SDS011;53640;55.838;37.184;2024-03-06T06:34:58;4.43;;;2.08;;
65533;SDS011;53640;55.838;37.184;2024-03-06T06:37:25;3.08;;;1.95;;
65533;SDS011;53640;55.838;37.184;2024-03-06T06:39:51;12.32;;;2.05;;
65533;SDS011;53640;55.838;37.184;2024-03-06T06:42:18;5.72;;;2.35;;
65533;SDS011;53640;55.838;37.184;2024-03-06T06:44:44;3.65;;;2.03;;
65533;SDS011;53640;55.838;37.184;2024-03-06T06:47:11;6.70;;;2.40;;
65533;SDS011;53640;55.838;37.184;2024-03-06T06:49:38;7.25;;;2.10;;
65533;SDS011;53640;55.838;37.184;2024-03-06T06:52:08;7.93;;;2.80;;
65533;SDS011;53640;55.838;37.184;2024-03-06T06:54:34;8.15;;;2.28;;
65533;SDS011;53640;55.838;37.184;2024-03-06T06:57:01;3.28;;;2.40;;
65533;SDS011;53640;55.838;37.184;2024-03-06T06:59:29;2.75;;;2.15;;
65533;SDS011;53640;55.838;37.184;2024-03-06T07:01:55;2.85;;;2.17;;
65533;SDS011;53640;55.838;37.184;2024-03-06T07:04:21;7.43;;;3.50;;
65533;SDS011;53640;55.838;37.184;2024-03-06T07:06:50;8.07;;;2.40;;
65533;SDS011;53640;55.838;37.184;2024-03-06T07:09:16;4.28;;;2.22;;
65533;SDS011;53640;55.838;37.184;2024-03-06T07:11:44;3.50;;;2.20;;
65533;SDS011;53640;55.838;37.184;2024-03-06T07:14:12;8.00;;;2.30;;
65533;SDS011;53640;55.838;37.184;2024-03-06T07:16:42;5.80;;;2.17;;
65533;SDS011;53640;55.838;37.184;2024-03-06T07:19:09;5.18;;;2.00;;
65533;SDS011;53640;55.838;37.184;2024-03-06T07:21:36;6.63;;;2.63;;
65533;SDS011;53640;55.838;37.184;2024-03-06T07:24:04;8.77;;;2.30;;
65533;SDS011;53640;55.838;37.184;2024-03-06T07:26:34;5.88;;;2.10;;
65533;SDS011;53640;55.838;37.184;2024-03-06T07:29:01;6.25;;;2.70;;
65533;SDS011;53640;55.838;37.184;2024-03-06T07:31:28;8.27;;;3.95;;
65533;SDS011;53640;55.838;37.184;2024-03-06T07:34:04;6.75;;;2.78;;
65533;SDS011;53640;55.838;37.184;2024-03-06T07:36:32;7.70;;;2.50;;
65533;SDS011;53640;55.838;37.184;2024-03-06T07:38:59;8.35;;;2.35;;
65533;SDS011;53640;55.838;37.184;2024-03-06T07:41:25;4.28;;;2.38;;
65533;SDS011;53640;55.838;37.184;2024-03-06T07:43:52;3.97;;;2.35;;
65533;SDS011;53640;55.838;37.184;2024-03-06T07:46:18;7.00;;;2.67;;
65533;SDS011;53640;55.838;37.184;2024-03-06T07:48:46;12.05;;;2.67;;
65533;SDS011;53640;55.838;37.184;2024-03-06T07:51:12;6.43;;;2.53;;
65533;SDS011;53640;55.838;37.184;2024-03-06T07:53:39;5.47;;;2.50;;
65533;SDS011;53640;55.838;37.184;2024-03-06T07:56:05;7.47;;;2.90;;
65533;SDS011;53640;55.838;37.184;2024-03-06T07:58:37;4.75;;;2.67;;
65533;SDS011;53640;55.838;37.184;2024-03-06T08:01:04;7.65;;;1.95;;
65533;SDS011;53640;55.838;37.184;2024-03-06T08:03:31;5.50;;;2.42;;
65533;SDS011;53640;55.838;37.184;2024-03-06T08:05:57;5.88;;;2.20;;
65533;SDS011;53640;55.838;37.184;2024-03-06T08:08:23;3.42;;;1.92;;
65533;SDS011;53640;55.838;37.184;2024-03-06T08:10:50;6.55;;;2.55;;
65533;SDS011;53640;55.838;37.184;2024-03-06T08:13:16;4.57;;;2.53;;
65533;SDS011;53640;55.838;37.184;2024-03-06T08:15:45;3.80;;;2.25;;
65533;SDS011;53640;55.838;37.184;2024-03-06T08:18:12;6.75;;;2.50;;
65533;SDS011;53640;55.838;37.184;2024-03-06T08:20:43;5.10;;;2.60;;
65533;SDS011;53640;55.838;37.184;2024-03-06T08:23:09;3.47;;;2.00;;
65533;SDS011;53640;55.838;37.184;2024-03-06T08:25:37;5.78;;;2.17;;
65533;SDS011;53640;55.838;37.184;2024-03-06T08:28:03;5.65;;;2.33;;
65533;SDS011;53640;55.838;37.184;2024-03-06T08:30:31;2.85;;;1.70;;
65533;SDS011;53640;55.838;37.184;2024-03-06T08:32:59;3.72;;;1.73;;
65533;SDS011;53640;55.838;37.184;2024-03-06T08:35:26;4.45;;;1.55;;
65533;SDS011;53640;55.838;37.184;2024-03-06T08:37:52;2.67;;;1.75;;
65533;SDS011;53640;55.838;37.184;2024-03-06T08:40:19;5.53;;;1.40;;
65533;SDS011;53640;55.838;37.184;2024-03-06T08:42:46;2.72;;;1.48;;
65533;SDS011;53640;55.838;37.184;2024-03-06T08:45:13;3.65;;;1.73;;
65533;SDS011;53640;55.838;37.184;2024-03-06T08:47:43;2.92;;;1.70;;
65533;SDS011;53640;55.838;37.184;2024-03-06T08:50:12;2.05;;;1.45;;
65533;SDS011;53640;55.838;37.184;2024-03-06T08:52:39;5.20;;;1.40;;
65533;SDS011;53640;55.838;37.184;2024-03-06T08:55:08;4.13;;;1.50;;
65533;SDS011;53640;55.838;37.184;2024-03-06T08:57:35;5.03;;;1.52;;
65533;SDS011;53640;55.838;37.184;2024-03-06T09:00:03;1.77;;;1.40;;
65533;SDS011;53640;55.838;37.184;2024-03-06T09:02:34;6.57;;;1.63;;
65533;SDS011;53640;55.838;37.184;2024-03-06T09:05:01;4.93;;;1.85;;
65533;SDS011;53640;55.838;37.184;2024-03-06T09:07:30;3.25;;;1.40;;
65533;SDS011;53640;55.838;37.184;2024-03-06T09:09:57;2.45;;;1.20;;
65533;SDS011;53640;55.838;37.184;2024-03-06T09:12:23;3.05;;;1.40;;
65533;SDS011;53640;55.838;37.184;2024-03-06T09:14:51;6.07;;;1.30;;
65533;SDS011;53640;55.838;37.184;2024-03-06T09:17:17;3.15;;;1.60;;
65533;SDS011;53640;55.838;37.184;2024-03-06T09:19:43;2.22;;;1.30;;
65533;SDS011;53640;55.838;37.184;2024-03-06T09:22:10;3.40;;;1.30;;
65533;SDS011;53640;55.838;37.184;2024-03-06T09:24:36;3.00;;;1.33;;
65533;SDS011;53640;55.838;37.184;2024-03-06T09:27:04;4.95;;;1.73;;
65533;SDS011;53640;55.838;37.184;2024-03-06T09:29:30;3.78;;;1.42;;
65533;SDS011;53640;55.838;37.184;2024-03-06T09:31:57;2.92;;;1.50;;
65533;SDS011;53640;55.838;37.184;2024-03-06T09:34:25;6.15;;;1.35;;
65533;SDS011;53640;55.838;37.184;2024-03-06T09:36:51;3.83;;;1.55;;
65533;SDS011;53640;55.838;37.184;2024-03-06T09:39:18;2.50;;;1.50;;
65533;SDS011;53640;55.838;37.184;2024-03-06T09:41:54;5.65;;;1.60;;
65533;SDS011;53640;55.838;37.184;2024-03-06T09:44:22;3.17;;;1.67;;
65533;SDS011;53640;55.838;37.184;2024-03-06T09:46:49;3.10;;;1.40;;
65533;SDS011;53640;55.838;37.184;2024-03-06T09:49:18;2.92;;;1.60;;
65533;SDS011;53640;55.838;37.184;2024-03-06T09:51:46;4.05;;;1.65;;
65533;SDS011;53640;55.838;37.184;2024-03-06T09:54:16;3.13;;;1.50;;
65533;SDS011;53640;55.838;37.184;2024-03-06T09:56:43;5.40;;;1.70;;
65533;SDS011;53640;55.838;37.184;2024-03-06T09:59:11;1.92;;;1.25;;
65533;SDS011;53640;55.838;37.184;2024-03-06T10:04:26;2.83;;;1.42;;
65533;SDS011;53640;55.838;37.184;2024-03-06T10:06:58;2.55;;;1.42;;
65533;SDS011;53640;55.838;37.184;2024-03-06T10:09:26;2.40;;;1.42;;
65533;SDS011;53640;55.838;37.184;2024-03-06T10:11:53;7.55;;;1.63;;
65533;SDS011;53640;55.838;37.184;2024-03-06T10:14:22;2.67;;;1.65;;
65533;SDS011;53640;55.838;37.184;2024-03-06T10:19:25;5.60;;;1.88;;
65533;SDS011;53640;55.838;37.184;2024-03-06T10:21:57;2.28;;;1.52;;
65533;SDS011;53640;55.838;37.184;2024-03-06T10:24:26;3.45;;;1.55;;
65533;SDS011;53640;55.838;37.184;2024-03-06T10:26:57;2.10;;;1.50;;
65533;SDS011;53640;55.838;37.184;2024-03-06T10:29:26;3.03;;;1.63;;
65533;SDS011;53640;55.838;37.184;2024-03-06T10:31:55;5.18;;;1.52;;
65533;SDS011;53640;55.838;37.184;2024-03-06T10:34:24;4.18;;;1.63;;
65533;SDS011;53640;55.838;37.184;2024-03-06T10:36:56;4.32;;;2.20;;
65533;SDS011;53640;55.838;37.184;2024-03-06T10:39:24;2.97;;;1.50;;
65533;SDS011;53640;55.838;37.184;2024-03-06T10:41:52;4.63;;;1.65;;
65533;SDS011;53640;55.838;37.184;2024-03-06T10:44:25;3.45;;;2.13;;
65533;SDS011;53640;55.838;37.184;2024-03-06T10:47:01;6.15;;;1.83;;
65533;SDS011;53640;55.838;37.184;2024-03-06T10:49:29;3.83;;;1.73;;
65533;SDS011;53640;55.838;37.184;2024-03-06T10:51:58;2.50;;;1.40;;
65533;SDS011;53640;55.838;37.184;2024-03-06T10:54:29;5.05;;;3.03;;
65533;SDS011;53640;55.838;37.184;2024-03-06T10:56:56;4.65;;;1.70;;
65533;SDS011;53640;55.838;37.184;2024-03-06T10:59:26;6.38;;;1.50;;
65533;SDS011;53640;55.838;37.184;2024-03-06T11:01:57;3.42;;;1.55;;
65533;SDS011;53640;55.838;37.184;2024-03-06T11:04:27;2.55;;;1.58;;
65533;SDS011;53640;55.838;37.184;2024-03-06T11:06:56;3.83;;;1.50;;
65533;SDS011;53640;55.838;37.184;2024-03-06T11:09:26;2.67;;;1.55;;
65533;SDS011;53640;55.838;37.184;2024-03-06T11:11:53;2.95;;;1.58;;
65533;SDS011;53640;55.838;37.184;2024-03-06T11:14:23;1.30;;;1.20;;
65533;SDS011;53640;55.838;37.184;2024-03-06T11:17:09;3.08;;;1.40;;
65533;SDS011;53640;55.838;37.184;2024-03-06T11:23:07;2.60;;;1.60;;
65533;SDS011;53640;55.838;37.184;2024-03-06T11:28:21;2.05;;;1.30;;
65533;SDS011;53640;55.838;37.184;2024-03-06T11:31:02;2.35;;;1.30;;
65533;SDS011;53640;55.838;37.184;2024-03-06T11:33:34;5.93;;;1.25;;
65533;SDS011;53640;55.838;37.184;2024-03-06T11:36:20;2.97;;;1.13;;
65533;SDS011;53640;55.838;37.184;2024-03-06T11:44:12;2.25;;;1.15;;
65533;SDS011;53640;55.838;37.184;2024-03-06T11:49:18;5.22;;;1.75;;
65533;SDS011;53640;55.838;37.184;2024-03-06T11:51:51;1.42;;;1.33;;
65533;SDS011;53640;55.838;37.184;2024-03-06T11:54:23;2.42;;;1.27;;
65533;SDS011;53640;55.838;37.184;2024-03-06T11:56:54;1.92;;;1.30;;
65533;SDS011;53640;55.838;37.184;2024-03-06T11:59:25;4.68;;;1.50;;
65533;SDS011;53640;55.838;37.184;2024-03-06T12:01:56;2.13;;;1.10;;
65533;SDS011;53640;55.838;37.184;2024-03-06T12:04:23;4.47;;;1.50;;
65533;SDS011;53640;55.838;37.184;2024-03-06T12:06:56;5.10;;;1.60;;
65533;SDS011;53640;55.838;37.184;2024-03-06T12:09:24;4.40;;;1.65;;
65533;SDS011;53640;55.838;37.184;2024-03-06T12:11:50;8.52;;;1.92;;
65533;SDS011;53640;55.838;37.184;2024-03-06T12:14:17;2.58;;;1.60;;
65533;SDS011;53640;55.838;37.184;2024-03-06T12:16:54;3.03;;;1.70;;
65533;SDS011;53640;55.838;37.184;2024-03-06T12:19:21;2.22;;;1.60;;
65533;SDS011;53640;55.838;37.184;2024-03-06T12:21:48;4.30;;;1.70;;
65533;SDS011;53640;55.838;37.184;2024-03-06T12:24:15;2.78;;;1.63;;
65533;SDS011;53640;55.838;37.184;2024-03-06T12:26:46;2.85;;;1.70;;
65533;SDS011;53640;55.838;37.184;2024-03-06T12:29:23;2.00;;;1.17;;
65533;SDS011;53640;55.838;37.184;2024-03-06T12:31:54;1.85;;;1.25;;
65533;SDS011;53640;55.838;37.184;2024-03-06T12:34:22;2.40;;;1.30;;
65533;SDS011;53640;55.838;37.184;2024-03-06T12:36:48;2.58;;;1.70;;
65533;SDS011;53640;55.838;37.184;2024-03-06T12:39:15;2.45;;;1.55;;
65533;SDS011;53640;55.838;37.184;2024-03-06T12:41:47;5.15;;;1.60;;
65533;SDS011;53640;55.838;37.184;2024-03-06T12:44:13;2.22;;;1.35;;
65533;SDS011;53640;55.838;37.184;2024-03-06T12:46:41;2.08;;;1.58;;
65533;SDS011;53640;55.838;37.184;2024-03-06T12:49:08;3.95;;;1.60;;
65533;SDS011;53640;55.838;37.184;2024-03-06T12:51:34;3.70;;;1.83;;
65533;SDS011;53640;55.838;37.184;2024-03-06T12:54:02;5.03;;;1.77;;
65533;SDS011;53640;55.838;37.184;2024-03-06T12:56:29;3.80;;;2.03;;
65533;SDS011;53640;55.838;37.184;2024-03-06T12:58:57;3.05;;;1.77;;
65533;SDS011;53640;55.838;37.184;2024-03-06T13:01:31;5.00;;;1.90;;
65533;SDS011;53640;55.838;37.184;2024-03-06T13:04:01;2.30;;;1.58;;
65533;SDS011;53640;55.838;37.184;2024-03-06T13:06:28;3.15;;;1.23;;
65533;SDS011;53640;55.838;37.184;2024-03-06T13:08:57;1.88;;;1.17;;
65533;SDS011;53640;55.838;37.184;2024-03-06T13:11:27;2.47;;;1.33;;
65533;SDS011;53640;55.838;37.184;2024-03-06T13:13:54;3.20;;;1.42;;
65533;SDS011;53640;55.838;37.184;2024-03-06T13:16:20;3.10;;;1.45;;
65533;SDS011;53640;55.838;37.184;2024-03-06T13:18:54;3.63;;;1.67;;
65533;SDS011;53640;55.838;37.184;2024-03-06T13:21:26;4.28;;;1.65;;
65533;SDS011;53640;55.838;37.184;2024-03-06T13:23:55;1.60;;;1.50;;
65533;SDS011;53640;55.838;37.184;2024-03-06T13:26:30;4.43;;;1.63;;
65533;SDS011;53640;55.838;37.184;2024-03-06T13:28:56;3.35;;;1.80;;
65533;SDS011;53640;55.838;37.184;2024-03-06T13:31:28;1.95;;;1.65;;
65533;SDS011;53640;55.838;37.184;2024-03-06T13:34:06;4.80;;;1.88;;
65533;SDS011;53640;55.838;37.184;2024-03-06T13:36:33;6.28;;;2.10;;
65533;SDS011;53640;55.838;37.184;2024-03-06T13:39:00;8.10;;;1.52;;
65533;SDS011;53640;55.838;37.184;2024-03-06T13:41:26;4.45;;;1.80;;
65533;SDS011;53640;55.838;37.184;2024-03-06T13:43:52;1.77;;;1.40;;
65533;SDS011;53640;55.838;37.184;2024-03-06T13:46:18;2.50;;;1.60;;
65533;SDS011;53640;55.838;37.184;2024-03-06T13:48:45;2.67;;;1.45;;
65533;SDS011;53640;55.838;37.184;2024-03-06T13:51:11;2.75;;;1.60;;
65533;SDS011;53640;55.838;37.184;2024-03-06T13:53:38;6.03;;;2.30;;
65533;SDS011;53640;55.838;37.184;2024-03-06T13:56:04;5.85;;;2.70;;
65533;SDS011;53640;55.838;37.184;2024-03-06T13:58:31;5.57;;;2.58;;
65533;SDS011;53640;55.838;37.184;2024-03-06T14:00:57;2.10;;;1.60;;
65533;SDS011;53640;55.838;37.184;2024-03-06T14:03:24;3.90;;;2.03;;
65533;SDS011;53640;55.838;37.184;2024-03-06T14:05:50;4.72;;;2.10;;
65533;SDS011;53640;55.838;37.184;2024-03-06T14:08:17;4.72;;;1.95;;
65533;SDS011;53640;55.838;37.184;2024-03-06T14:10:43;2.95;;;1.77;;
65533;SDS011;53640;55.838;37.184;2024-03-06T14:13:11;5.50;;;2.55;;
65533;SDS011;53640;55.838;37.184;2024-03-06T14:15:37;8.85;;;2.50;;
65533;SDS011;53640;55.838;37.184;2024-03-06T14:18:04;6.72;;;2.17;;
65533;SDS011;53640;55.838;37.184;2024-03-06T14:20:32;5.55;;;2.20;;
65533;SDS011;53640;55.838;37.184;2024-03-06T14:22:58;7.68;;;1.83;;
65533;SDS011;53640;55.838;37.184;2024-03-06T14:25:25;3.22;;;1.70;;
65533;SDS011;53640;55.838;37.184;2024-03-06T14:27:51;5.60;;;2.10;;
65533;SDS011;53640;55.838;37.184;2024-03-06T14:30:17;2.60;;;1.30;;
65533;SDS011;53640;55.838;37.184;2024-03-06T14:32:45;2.47;;;1.63;;
65533;SDS011;53640;55.838;37.184;2024-03-06T14:35:12;5.00;;;2.97;;
65533;SDS011;53640;55.838;37.184;2024-03-06T14:37:39;3.85;;;2.00;;
65533;SDS011;53640;55.838;37.184;2024-03-06T14:40:06;3.40;;;1.60;;
65533;SDS011;53640;55.838;37.184;2024-03-06T14:42:34;6.57;;;1.73;;
65533;SDS011;53640;55.838;37.184;2024-03-06T14:45:01;2.60;;;1.58;;
65533;SDS011;53640;55.838;37.184;2024-03-06T14:47:31;5.75;;;2.25;;
65533;SDS011;53640;55.838;37.184;2024-03-06T14:49:58;2.75;;;1.80;;
65533;SDS011;53640;55.838;37.184;2024-03-06T14:52:25;6.05;;;1.98;;
65533;SDS011;53640;55.838;37.184;2024-03-06T14:54:52;6.78;;;1.90;;
65533;SDS011;53640;55.838;37.184;2024-03-06T14:57:18;5.03;;;1.90;;
65533;SDS011;53640;55.838;37.184;2024-03-06T14:59:45;4.35;;;1.70;;